Time;durP1;ratioP1;P1;durP2;ratioP2;P2;SDS_P1;SDS_P2;PMS_P1;PMS_P2;Temp;Humidity;BMP_temperature;BMP_pressure;BME280_temperature;BME280_humidity;BME280_pressure;Samples;Min_cycle;Max_cycle;Signal;HPM_P1;HPM_P2
2024/01/14 00:00:32;;;;;;;0.40;0.40;;;1.20;92.10;;;;;;10442744;28;20271;-80
2024/01/14 00:05:35;;;;;;;0.30;0.30;;;1.20;92.40;;;;;;10475249;28;20232;-81
2024/01/14 00:10:38;;;;;;;0.30;0.30;;;1.20;92.20;;;;;;10466909;28;20221;-80
2024/01/14 00:15:42;;;;;;;0.40;0.40;;;1.20;91.70;;;;;;10464002;28;20589;-80
2024/01/14 00:20:44;;;;;;;0.30;0.30;;;1.10;92.00;;;;;;10451276;28;20221;-79
2024/01/14 00:25:48;;;;;;;0.33;0.33;;;1.10;92.20;;;;;;10462517;28;20701;-81
2024/01/14 00:30:50;;;;;;;0.30;0.30;;;1.20;91.80;;;;;;10479000;28;20220;-79
2024/01/14 00:35:52;;;;;;;0.40;0.40;;;1.10;91.70;;;;;;10496600;28;20199;-81
2024/01/14 00:40:56;;;;;;;0.40;0.40;;;1.00;91.80;;;;;;10502274;28;20584;-81
2024/01/14 00:45:59;;;;;;;0.30;0.30;;;1.00;92.00;;;;;;10493787;28;20221;-81
2024/01/14 00:51:01;;;;;;;0.30;0.30;;;0.90;91.90;;;;;;10484438;28;20228;-80
2024/01/14 00:56:06;;;;;;;0.30;0.30;;;0.90;91.90;;;;;;10529386;28;20267;-80
2024/01/14 01:01:09;;;;;;;0.20;0.20;;;0.90;92.30;;;;;;10489703;28;20227;-80
2024/01/14 01:06:11;;;;;;;0.30;0.30;;;0.90;91.80;;;;;;10499154;28;20774;-80
2024/01/14 01:11:17;;;;;;;0.30;0.30;;;0.90;92.00;;;;;;10494600;28;20783;-81
2024/01/14 01:16:19;;;;;;;0.30;0.30;;;0.90;92.00;;;;;;10491036;28;20189;-82
2024/01/14 01:21:22;;;;;;;0.33;0.33;;;0.90;92.30;;;;;;10484038;28;20216;-80
2024/01/14 01:26:26;;;;;;;0.40;0.40;;;0.90;92.40;;;;;;10481341;28;20221;-80
2024/01/14 01:31:28;;;;;;;0.30;0.30;;;1.00;92.30;;;;;;10466144;28;20205;-80
2024/01/14 01:36:30;;;;;;;0.30;0.30;;;1.00;92.30;;;;;;10483151;28;20197;-80
2024/01/14 01:41:34;;;;;;;0.30;0.30;;;1.00;92.40;;;;;;10482336;28;20221;-80
2024/01/14 01:46:37;;;;;;;0.30;0.30;;;1.10;92.10;;;;;;10496204;28;20277;-79
2024/01/14 01:51:41;;;;;;;0.30;0.30;;;1.00;92.00;;;;;;10494050;28;20220;-82
2024/01/14 01:56:45;;;;;;;0.40;0.40;;;1.00;91.90;;;;;;10490043;28;20206;-80
2024/01/14 02:01:48;;;;;;;0.30;0.30;;;1.00;92.30;;;;;;10511387;28;20223;-81
2024/01/14 02:06:52;;;;;;;0.40;0.40;;;1.00;92.30;;;;;;10512508;28;20434;-83
2024/01/14 02:11:55;;;;;;;0.30;0.30;;;1.00;92.20;;;;;;10464449;28;20221;-81
2024/01/14 02:16:58;;;;;;;0.30;0.30;;;1.10;92.50;;;;;;10459613;28;20189;-81
2024/01/14 02:22:07;;;;;;;0.30;0.30;;;1.10;92.50;;;;;;10482513;28;20211;-81
2024/01/14 02:27:11;;;;;;;0.30;0.30;;;1.20;92.60;;;;;;10464609;28;20379;-77
2024/01/14 02:32:13;;;;;;;0.40;0.40;;;1.30;92.40;;;;;;10483651;28;20704;-80
2024/01/14 02:37:16;;;;;;;0.30;0.30;;;1.30;92.20;;;;;;10482589;28;20225;-81
2024/01/14 02:42:19;;;;;;;0.30;0.30;;;1.30;92.10;;;;;;10485424;28;20666;-81
2024/01/14 02:47:22;;;;;;;0.30;0.30;;;1.30;92.20;;;;;;10458857;28;20217;-82
2024/01/14 02:52:24;;;;;;;0.30;0.30;;;1.40;92.00;;;;;;10481216;28;20603;-83
2024/01/14 02:57:28;;;;;;;0.30;0.30;;;1.40;91.80;;;;;;10481173;28;20188;-81
2024/01/14 03:02:30;;;;;;;0.27;0.27;;;1.30;91.70;;;;;;10480569;28;20231;-81
2024/01/14 03:07:32;;;;;;;0.30;0.30;;;1.30;91.70;;;;;;10461181;28;20692;-81
2024/01/14 03:12:36;;;;;;;0.20;0.20;;;1.30;91.90;;;;;;10442508;28;20274;-82
2024/01/14 03:17:39;;;;;;;0.30;0.30;;;1.30;91.80;;;;;;10480733;28;20188;-80
2024/01/14 03:22:42;;;;;;;0.30;0.30;;;1.20;91.60;;;;;;10524844;28;20239;-80
2024/01/14 03:27:46;;;;;;;0.30;0.30;;;1.20;91.70;;;;;;10488023;28;20219;-83
2024/01/14 03:32:48;;;;;;;0.30;0.30;;;1.20;91.50;;;;;;10479688;28;20216;-79
2024/01/14 03:37:50;;;;;;;0.50;0.50;;;1.20;91.40;;;;;;10513453;28;20202;-79
2024/01/14 03:42:54;;;;;;;0.30;0.30;;;1.20;91.30;;;;;;10486186;28;20199;-82
2024/01/14 03:47:56;;;;;;;0.30;0.30;;;1.20;91.00;;;;;;10484951;28;20234;-81
2024/01/14 03:52:59;;;;;;;0.33;0.33;;;1.10;91.20;;;;;;10487573;28;20217;-82
2024/01/14 03:58:02;;;;;;;0.40;0.40;;;1.10;91.20;;;;;;10522442;28;20199;-80
2024/01/14 04:03:05;;;;;;;0.40;0.40;;;1.10;90.80;;;;;;10492319;28;20665;-81
2024/01/14 04:08:07;;;;;;;0.63;0.63;;;1.10;90.90;;;;;;10480922;28;20272;-79
2024/01/14 04:13:11;;;;;;;0.50;0.50;;;1.00;90.90;;;;;;10480909;28;20195;-81
2024/01/14 04:18:13;;;;;;;0.70;0.70;;;1.00;91.00;;;;;;10474717;28;20318;-81
2024/01/14 04:23:16;;;;;;;0.50;0.50;;;1.00;90.90;;;;;;10511327;28;20195;-82
2024/01/14 04:28:20;;;;;;;0.60;0.60;;;1.00;91.00;;;;;;10506868;28;20277;-79
2024/01/14 04:33:23;;;;;;;0.50;0.50;;;0.90;91.10;;;;;;10452154;28;20328;-80
2024/01/14 04:38:25;;;;;;;0.70;0.70;;;0.90;91.20;;;;;;10473576;28;20219;-81
2024/01/14 04:43:29;;;;;;;0.50;0.50;;;0.90;91.10;;;;;;10472588;28;20200;-80
2024/01/14 04:48:33;;;;;;;0.50;0.50;;;0.90;91.00;;;;;;10449522;28;20220;-82
2024/01/14 04:53:35;;;;;;;0.50;0.50;;;0.80;91.10;;;;;;10445252;28;20243;-79
2024/01/14 04:58:39;;;;;;;0.50;0.50;;;0.90;91.20;;;;;;10445197;28;20228;-81
2024/01/14 05:03:41;;;;;;;0.60;0.60;;;0.80;91.10;;;;;;10461853;28;20271;-81
2024/01/14 05:08:44;;;;;;;0.43;0.43;;;0.90;91.00;;;;;;10465405;28;20678;-81
2024/01/14 05:13:48;;;;;;;0.40;0.40;;;0.80;90.60;;;;;;10484458;28;20192;-81
2024/01/14 05:18:50;;;;;;;0.53;0.53;;;0.80;90.50;;;;;;10543755;28;20668;-80
2024/01/14 05:23:52;;;;;;;0.70;0.70;;;0.70;90.70;;;;;;10543316;28;20673;-81
2024/01/14 05:28:59;;;;;;;0.57;0.57;;;0.70;90.80;;;;;;10541889;28;20622;-80
2024/01/14 05:34:01;;;;;;;0.60;0.60;;;0.70;90.80;;;;;;10523616;28;20327;-81
2024/01/14 05:39:04;;;;;;;0.57;0.57;;;0.70;90.70;;;;;;10545497;28;20295;-80
2024/01/14 05:44:08;;;;;;;0.43;0.43;;;0.60;90.80;;;;;;10491215;28;20285;-81
2024/01/14 05:49:10;;;;;;;0.70;0.70;;;0.60;90.80;;;;;;10536082;28;20626;-82
2024/01/14 05:54:13;;;;;;;0.50;0.50;;;0.50;90.90;;;;;;10463693;28;20608;-81
2024/01/14 05:59:16;;;;;;;0.53;0.53;;;0.60;91.00;;;;;;10520831;28;20228;-80
2024/01/14 06:04:19;;;;;;;0.50;0.50;;;0.60;90.90;;;;;;10532348;28;20201;-81
2024/01/14 06:09:21;;;;;;;0.50;0.50;;;0.60;91.10;;;;;;10462242;28;20231;-81
2024/01/14 06:14:25;;;;;;;0.50;0.50;;;0.60;90.70;;;;;;10481334;28;20789;-80
2024/01/14 06:19:27;;;;;;;0.57;0.57;;;0.60;90.60;;;;;;10514147;28;20280;-78
2024/01/14 06:24:29;;;;;;;0.57;0.57;;;0.60;90.60;;;;;;10530637;28;20235;-80
2024/01/14 06:29:33;;;;;;;0.57;0.57;;;0.60;90.70;;;;;;10531804;28;20213;-82
2024/01/14 06:34:36;;;;;;;0.60;0.60;;;0.60;90.70;;;;;;10511807;28;20278;-80
2024/01/14 06:39:38;;;;;;;0.60;0.60;;;0.60;90.40;;;;;;10508666;28;20255;-80
2024/01/14 06:44:42;;;;;;;0.50;0.50;;;0.50;90.10;;;;;;10467927;28;20220;-82
2024/01/14 06:49:45;;;;;;;0.40;0.40;;;0.50;90.10;;;;;;10525473;28;20295;-79
2024/01/14 06:54:48;;;;;;;0.50;0.50;;;0.50;90.40;;;;;;10525485;28;20445;-82
2024/01/14 06:59:51;;;;;;;0.50;0.50;;;0.50;90.60;;;;;;10528537;28;20225;-80
2024/01/14 07:04:56;;;;;;;0.57;0.57;;;0.50;90.50;;;;;;10497843;28;20743;-80
2024/01/14 07:09:58;;;;;;;0.50;0.50;;;0.50;90.40;;;;;;10479474;28;20242;-79
2024/01/14 07:15:02;;;;;;;0.50;0.50;;;0.50;90.40;;;;;;10475463;28;20255;-79
2024/01/14 07:20:05;;;;;;;0.60;0.60;;;0.50;90.60;;;;;;10473104;28;20219;-79
2024/01/14 07:25:08;;;;;;;0.50;0.50;;;0.40;90.30;;;;;;10496530;28;20243;-80
2024/01/14 07:30:12;;;;;;;0.50;0.50;;;0.30;90.50;;;;;;10504898;28;20209;-78
2024/01/14 07:35:15;;;;;;;0.63;0.63;;;0.30;90.60;;;;;;10473760;28;20274;-80
2024/01/14 07:40:17;;;;;;;0.50;0.50;;;0.20;90.50;;;;;;10515321;28;20205;-81
2024/01/14 07:45:21;;;;;;;0.47;0.47;;;0.20;90.80;;;;;;10461855;28;20335;-77
2024/01/14 07:50:23;;;;;;;0.50;0.50;;;0.20;91.00;;;;;;10515155;28;20212;-80
2024/01/14 07:55:26;;;;;;;0.60;0.60;;;0.20;90.80;;;;;;10525192;28;20261;-80
2024/01/14 08:00:29;;;;;;;0.40;0.40;;;0.20;90.70;;;;;;10491740;28;20239;-79
2024/01/14 08:05:32;;;;;;;0.60;0.60;;;0.20;90.70;;;;;;10451198;28;20217;-79
2024/01/14 08:10:34;;;;;;;0.40;0.40;;;0.20;90.80;;;;;;10506916;28;20205;-78
2024/01/14 08:15:38;;;;;;;0.50;0.50;;;0.20;90.50;;;;;;10505626;28;20675;-78
2024/01/14 08:20:41;;;;;;;0.50;0.50;;;0.10;90.50;;;;;;10513554;28;20228;-79
2024/01/14 08:25:44;;;;;;;0.50;0.50;;;0.10;90.90;;;;;;10515929;28;20621;-78
2024/01/14 08:30:48;;;;;;;0.40;0.40;;;0.10;91.00;;;;;;10501090;28;20225;-78
2024/01/14 08:35:51;;;;;;;0.50;0.50;;;0.10;90.80;;;;;;10500043;28;20196;-78
2024/01/14 08:40:53;;;;;;;0.40;0.40;;;0.20;91.20;;;;;;10504257;28;20675;-80
2024/01/14 08:45:57;;;;;;;0.50;0.50;;;0.30;91.20;;;;;;10517954;28;20221;-78
2024/01/14 08:51:01;;;;;;;0.53;0.53;;;0.30;91.30;;;;;;10482118;28;20220;-79
2024/01/14 08:56:04;;;;;;;0.50;0.50;;;0.40;91.30;;;;;;10480848;28;20203;-79
2024/01/14 09:01:07;;;;;;;0.40;0.40;;;0.50;90.80;;;;;;10513160;28;20225;-80
2024/01/14 09:06:10;;;;;;;0.40;0.40;;;0.60;91.00;;;;;;10505469;28;20662;-78
2024/01/14 09:11:14;;;;;;;0.30;0.30;;;0.60;90.70;;;;;;10509157;28;20217;-80
2024/01/14 09:16:18;;;;;;;0.30;0.30;;;0.60;90.70;;;;;;10512980;28;20197;-79
2024/01/14 09:21:21;;;;;;;0.40;0.40;;;0.60;90.60;;;;;;10499771;28;20660;-80
2024/01/14 09:26:23;;;;;;;0.40;0.40;;;0.60;90.50;;;;;;10493993;28;20275;-80
2024/01/14 09:31:27;;;;;;;0.20;0.20;;;0.60;90.40;;;;;;10521314;28;20266;-79
2024/01/14 09:36:30;;;;;;;0.40;0.40;;;0.60;90.50;;;;;;10509474;28;20197;-79
2024/01/14 09:41:38;;;;;;;0.40;0.40;;;0.60;90.60;;;;;;10456997;28;20221;-80
2024/01/14 09:46:42;;;;;;;0.40;0.40;;;0.70;90.50;;;;;;10490388;28;20262;-79
2024/01/14 09:51:47;;;;;;;0.40;0.40;;;0.70;90.80;;;;;;10505051;28;20638;-80
2024/01/14 09:56:53;;;;;;;0.40;0.40;;;0.80;90.50;;;;;;10496643;28;20258;-78
2024/01/14 10:01:58;;;;;;;0.40;0.40;;;0.80;90.70;;;;;;10513569;28;20229;-78
2024/01/14 10:07:00;;;;;;;0.33;0.33;;;0.90;90.80;;;;;;10499840;28;20229;-78
2024/01/14 10:12:03;;;;;;;0.30;0.30;;;0.90;90.10;;;;;;10503052;28;20225;-79
2024/01/14 10:17:07;;;;;;;0.30;0.30;;;0.90;90.30;;;;;;10492408;28;20197;-77
2024/01/14 10:22:10;;;;;;;0.30;0.30;;;0.90;89.90;;;;;;10452307;28;20219;-79
2024/01/14 10:27:12;;;;;;;0.40;0.40;;;0.80;90.00;;;;;;10510742;28;20209;-78
2024/01/14 10:32:16;;;;;;;0.20;0.20;;;0.80;89.80;;;;;;10506590;28;20227;-77
2024/01/14 10:37:22;;;;;;;0.20;0.20;;;0.70;89.80;;;;;;10491098;28;20193;-78
2024/01/14 10:42:24;;;;;;;0.20;0.20;;;0.70;90.30;;;;;;10481818;28;20217;-77
2024/01/14 10:47:30;;;;;;;0.30;0.30;;;0.80;90.60;;;;;;10497108;28;20228;-79
2024/01/14 10:52:37;;;;;;;0.27;0.27;;;1.00;90.80;;;;;;10493057;28;20258;-78
2024/01/14 10:57:41;;;;;;;0.40;0.40;;;1.20;90.50;;;;;;10508993;28;20262;-77
2024/01/14 11:02:46;;;;;;;0.40;0.40;;;1.40;89.80;;;;;;10494047;28;20232;-80
2024/01/14 11:07:49;;;;;;;0.37;0.37;;;1.50;89.90;;;;;;10509023;28;20212;-80
2024/01/14 11:13:01;;;;;;;0.40;0.40;;;1.60;89.50;;;;;;10489955;28;20220;-79
2024/01/14 11:18:10;;;;;;;0.43;0.43;;;1.60;89.90;;;;;;10438254;28;20197;-79
2024/01/14 11:23:13;;;;;;;0.37;0.37;;;1.60;89.30;;;;;;10478749;28;20689;-79
2024/01/14 11:28:16;;;;;;;0.40;0.40;;;1.70;89.60;;;;;;10459437;28;20772;-80
2024/01/14 11:33:31;;;;;;;0.40;0.40;;;1.70;89.30;;;;;;10497567;28;20200;-78
2024/01/14 11:38:35;;;;;;;0.30;0.30;;;1.70;89.50;;;;;;10497792;28;20224;-79
2024/01/14 11:43:37;;;;;;;0.30;0.30;;;1.80;88.80;;;;;;10498253;28;20204;-80
2024/01/14 11:48:42;;;;;;;0.40;0.40;;;1.90;89.20;;;;;;10483222;28;20710;-79
2024/01/14 11:53:45;;;;;;;0.33;0.33;;;1.90;88.20;;;;;;10477289;28;20211;-80
2024/01/14 11:58:48;;;;;;;0.40;0.40;;;2.00;88.80;;;;;;10493017;28;20228;-79
2024/01/14 12:04:02;;;;;;;0.40;0.40;;;2.00;88.80;;;;;;10487648;28;20193;-79
2024/01/14 12:09:04;;;;;;;0.50;0.50;;;2.10;89.30;;;;;;10502448;28;20232;-78
2024/01/14 12:14:06;;;;;;;0.20;0.20;;;2.10;88.80;;;;;;10499039;28;20254;-80
2024/01/14 12:19:16;;;;;;;0.40;0.40;;;2.20;88.50;;;;;;10510182;28;20212;-79
2024/01/14 12:24:19;;;;;;;0.20;0.20;;;2.20;87.90;;;;;;10465045;28;20234;-80
2024/01/14 12:29:21;;;;;;;0.30;0.30;;;2.20;88.40;;;;;;10499164;28;20224;-77
2024/01/14 12:34:25;;;;;;;0.40;0.40;;;2.30;88.20;;;;;;10482189;28;20570;-80
2024/01/14 12:39:27;;;;;;;0.30;0.30;;;2.30;88.80;;;;;;10460915;28;20210;-80
2024/01/14 12:44:32;;;;;;;0.30;0.30;;;2.30;88.40;;;;;;10461070;28;20224;-78
2024/01/14 12:49:37;;;;;;;0.30;0.30;;;2.40;88.40;;;;;;10470307;28;20225;-80
2024/01/14 12:54:48;;;;;;;0.40;0.40;;;2.50;87.90;;;;;;10488925;28;20201;-80
2024/01/14 12:59:52;;;;;;;0.30;0.30;;;2.50;88.30;;;;;;10510574;28;20212;-80
2024/01/14 13:04:56;;;;;;;0.30;0.30;;;2.60;87.90;;;;;;10506372;28;20735;-80
2024/01/14 13:09:58;;;;;;;0.20;0.20;;;2.60;88.80;;;;;;10474108;28;20579;-79
2024/01/14 13:15:01;;;;;;;0.40;0.40;;;2.60;89.00;;;;;;10462106;28;20267;-78
2024/01/14 13:20:05;;;;;;;0.30;0.30;;;2.70;89.10;;;;;;10487245;28;20212;-80
2024/01/14 13:25:08;;;;;;;0.40;0.40;;;2.80;89.20;;;;;;10471638;28;20197;-79
2024/01/14 13:30:11;;;;;;;0.30;0.30;;;2.80;89.20;;;;;;10457561;28;20240;-79
2024/01/14 13:35:15;;;;;;;0.30;0.30;;;2.90;89.30;;;;;;10486183;28;20218;-78
2024/01/14 13:40:17;;;;;;;0.40;0.40;;;2.90;89.20;;;;;;10495962;28;20339;-77
2024/01/14 13:45:20;;;;;;;0.40;0.40;;;2.90;89.10;;;;;;10495415;28;20258;-78
2024/01/14 13:50:23;;;;;;;0.30;0.30;;;3.00;88.50;;;;;;10525735;28;20223;-79
2024/01/14 13:55:26;;;;;;;0.20;0.20;;;3.00;88.20;;;;;;10501740;28;20204;-79
2024/01/14 14:00:28;;;;;;;0.33;0.33;;;3.00;87.40;;;;;;10534822;28;20656;-77
2024/01/14 14:05:32;;;;;;;0.30;0.30;;;3.00;86.90;;;;;;10533578;28;20245;-78
2024/01/14 14:10:35;;;;;;;0.30;0.30;;;3.00;87.20;;;;;;10533479;28;20281;-78
2024/01/14 14:15:37;;;;;;;0.30;0.30;;;3.00;86.60;;;;;;10531062;28;20203;-79
2024/01/14 14:20:41;;;;;;;0.30;0.30;;;3.00;87.30;;;;;;10531287;28;20273;-79
2024/01/14 14:25:43;;;;;;;0.30;0.30;;;3.00;86.90;;;;;;10529162;28;20200;-76
2024/01/14 14:30:46;;;;;;;0.30;0.30;;;2.90;86.90;;;;;;10531684;28;20227;-80
2024/01/14 14:35:50;;;;;;;0.40;0.40;;;2.90;86.50;;;;;;10527172;28;20301;-77
2024/01/14 14:40:52;;;;;;;0.50;0.50;;;2.90;86.40;;;;;;10523170;28;20708;-79
2024/01/14 14:45:55;;;;;;;0.50;0.50;;;2.90;86.90;;;;;;10506226;28;20221;-77
2024/01/14 14:50:59;;;;;;;0.40;0.40;;;2.90;87.00;;;;;;10524220;28;20713;-76
2024/01/14 14:56:01;;;;;;;0.30;0.30;;;2.90;86.50;;;;;;10520865;28;20188;-77
2024/01/14 15:01:04;;;;;;;0.40;0.40;;;2.90;86.20;;;;;;10520768;28;20211;-78
2024/01/14 15:06:07;;;;;;;0.63;0.50;;;2.80;86.70;;;;;;10520593;28;20251;-78
2024/01/14 15:11:10;;;;;;;0.50;0.50;;;2.70;87.50;;;;;;10492378;28;20714;-79
2024/01/14 15:16:15;;;;;;;0.50;0.50;;;2.70;87.70;;;;;;10499304;28;20229;-80
2024/01/14 15:21:19;;;;;;;0.40;0.40;;;2.50;87.90;;;;;;10516259;28;20223;-76
2024/01/14 15:26:22;;;;;;;0.40;0.40;;;2.30;88.50;;;;;;10522882;28;20196;-78
2024/01/14 15:31:24;;;;;;;0.40;0.40;;;2.20;88.90;;;;;;10513490;28;20228;-78
2024/01/14 15:36:28;;;;;;;0.57;0.57;;;2.10;89.40;;;;;;10495371;28;20200;-79
2024/01/14 15:41:33;;;;;;;0.40;0.40;;;2.00;89.60;;;;;;10502552;28;20216;-78
2024/01/14 15:46:35;;;;;;;0.40;0.40;;;1.90;89.90;;;;;;10510703;28;20200;-79
2024/01/14 15:51:39;;;;;;;0.30;0.30;;;1.90;90.00;;;;;;10511945;28;20646;-79
2024/01/14 15:56:41;;;;;;;0.40;0.40;;;1.80;90.20;;;;;;10526869;28;20202;-78
2024/01/14 16:01:44;;;;;;;0.40;0.40;;;1.70;90.20;;;;;;10488136;28;21063;-79
2024/01/14 16:06:47;;;;;;;0.40;0.40;;;1.60;90.60;;;;;;10513668;28;20220;-80
2024/01/14 16:11:50;;;;;;;0.30;0.30;;;1.50;90.40;;;;;;10487712;28;20213;-79
2024/01/14 16:16:52;;;;;;;0.40;0.40;;;1.50;90.40;;;;;;10491872;28;20196;-77
2024/01/14 16:21:56;;;;;;;0.40;0.40;;;1.40;90.50;;;;;;10519103;28;20693;-79
2024/01/14 16:26:59;;;;;;;0.40;0.40;;;1.30;90.50;;;;;;10500469;28;20665;-78
2024/01/14 16:32:01;;;;;;;0.40;0.40;;;1.30;90.60;;;;;;10504245;28;20265;-78
2024/01/14 16:37:05;;;;;;;0.40;0.40;;;1.20;90.70;;;;;;10497702;28;20735;-79
2024/01/14 16:42:07;;;;;;;0.40;0.40;;;1.10;90.70;;;;;;10468021;28;20224;-78
2024/01/14 16:47:09;;;;;;;0.40;0.40;;;1.00;90.80;;;;;;10494679;28;20265;-79
2024/01/14 16:52:13;;;;;;;0.40;0.40;;;0.90;90.80;;;;;;10507489;28;20223;-79
2024/01/14 16:57:16;;;;;;;0.40;0.40;;;0.80;91.10;;;;;;10522600;28;20212;-80
2024/01/14 17:02:19;;;;;;;0.30;0.30;;;0.70;91.10;;;;;;10505592;28;20219;-79
2024/01/14 17:07:23;;;;;;;0.40;0.40;;;0.70;91.20;;;;;;10506752;28;20486;-78
2024/01/14 17:12:27;;;;;;;0.40;0.40;;;0.60;91.30;;;;;;10475588;28;20654;-79
2024/01/14 17:17:29;;;;;;;0.40;0.40;;;0.60;91.50;;;;;;10495485;28;20192;-78
2024/01/14 17:22:33;;;;;;;0.50;0.50;;;0.50;91.50;;;;;;10501449;28;20281;-76
2024/01/14 17:27:35;;;;;;;0.43;0.43;;;0.40;91.40;;;;;;10498568;28;20208;-77
2024/01/14 17:32:38;;;;;;;0.40;0.40;;;0.40;91.60;;;;;;10497118;28;20289;-77
2024/01/14 17:37:42;;;;;;;0.40;0.40;;;0.40;91.80;;;;;;10479865;28;20222;-78
2024/01/14 17:42:44;;;;;;;0.30;0.30;;;0.50;92.50;;;;;;10497620;28;20224;-80
2024/01/14 17:47:46;;;;;;;0.40;0.40;;;0.60;92.80;;;;;;10499546;28;20223;-77
2024/01/14 17:52:50;;;;;;;0.30;0.30;;;0.70;92.60;;;;;;10473928;28;20349;-78
2024/01/14 17:57:52;;;;;;;0.40;0.40;;;0.70;92.50;;;;;;10477380;28;20188;-78
2024/01/14 18:02:55;;;;;;;0.40;0.40;;;0.80;92.60;;;;;;10495820;28;20669;-79
2024/01/14 18:07:59;;;;;;;0.40;0.40;;;0.90;92.70;;;;;;10445733;28;20637;-78
2024/01/14 18:13:02;;;;;;;0.40;0.40;;;0.90;92.50;;;;;;10452320;28;20793;-78
2024/01/14 18:18:05;;;;;;;0.40;0.40;;;1.00;92.20;;;;;;10483383;28;20196;-78
2024/01/14 18:23:09;;;;;;;0.30;0.30;;;1.00;92.10;;;;;;10512878;28;20756;-77
2024/01/14 18:28:11;;;;;;;0.40;0.40;;;1.00;92.00;;;;;;10490382;28;20230;-78
2024/01/14 18:33:14;;;;;;;0.30;0.30;;;0.90;91.90;;;;;;10513729;28;20260;-80
2024/01/14 18:38:18;;;;;;;0.40;0.40;;;1.00;91.80;;;;;;10509763;28;20208;-79
2024/01/14 18:43:20;;;;;;;0.40;0.40;;;0.90;91.70;;;;;;10474496;28;20205;-78
2024/01/14 18:48:23;;;;;;;0.40;0.40;;;0.90;91.60;;;;;;10478319;28;20277;-77
2024/01/14 18:53:26;;;;;;;0.30;0.30;;;0.90;91.80;;;;;;10482854;28;20191;-77
2024/01/14 18:58:29;;;;;;;0.40;0.40;;;0.90;91.80;;;;;;10469257;28;20224;-77
2024/01/14 19:03:31;;;;;;;0.40;0.40;;;0.90;91.90;;;;;;10535419;28;20208;-80
2024/01/14 19:08:35;;;;;;;0.40;0.40;;;0.90;92.10;;;;;;10530323;28;20677;-79
2024/01/14 19:13:37;;;;;;;0.40;0.40;;;0.90;92.20;;;;;;10514288;28;20628;-81
2024/01/14 19:18:40;;;;;;;0.30;0.30;;;0.90;91.90;;;;;;10505290;28;20220;-77
2024/01/14 19:23:46;;;;;;;0.40;0.40;;;0.90;92.00;;;;;;10504042;28;20203;-79
2024/01/14 19:28:48;;;;;;;0.40;0.40;;;0.90;91.90;;;;;;10522768;28;20261;-79
2024/01/14 19:33:52;;;;;;;0.40;0.40;;;0.80;92.00;;;;;;10521460;28;20685;-79
2024/01/14 19:38:56;;;;;;;0.30;0.30;;;0.80;92.00;;;;;;10520299;28;20268;-77
2024/01/14 19:43:58;;;;;;;0.40;0.40;;;0.80;92.00;;;;;;10499125;28;20200;-77
2024/01/14 19:49:03;;;;;;;0.40;0.40;;;0.80;92.20;;;;;;10512930;28;20225;-78
2024/01/14 19:54:07;;;;;;;0.30;0.30;;;0.90;92.20;;;;;;10462371;28;20207;-80
2024/01/14 19:59:10;;;;;;;0.40;0.40;;;0.80;92.00;;;;;;10494744;28;20713;-81
2024/01/14 20:04:12;;;;;;;0.30;0.30;;;0.80;92.20;;;;;;10513754;28;20222;-80
2024/01/14 20:09:21;;;;;;;0.40;0.40;;;0.90;92.40;;;;;;10509687;28;20223;-80
2024/01/14 20:14:23;;;;;;;0.30;0.30;;;0.90;92.50;;;;;;10520588;28;20674;-80
2024/01/14 20:19:25;;;;;;;0.30;0.30;;;0.90;92.30;;;;;;10517037;28;20257;-79
2024/01/14 20:24:31;;;;;;;0.37;0.37;;;0.90;92.10;;;;;;10506254;28;20190;-81
2024/01/14 20:29:34;;;;;;;0.30;0.30;;;0.90;92.30;;;;;;10509499;28;20735;-78
2024/01/14 20:34:36;;;;;;;0.40;0.40;;;1.00;92.20;;;;;;10487606;28;20216;-80
2024/01/14 20:39:40;;;;;;;0.40;0.40;;;0.90;92.00;;;;;;10478125;28;20220;-78
2024/01/14 20:44:42;;;;;;;0.30;0.30;;;0.90;91.70;;;;;;10472526;28;20609;-79
2024/01/14 20:49:45;;;;;;;0.30;0.30;;;0.90;91.60;;;;;;10482986;28;20229;-81
2024/01/14 20:54:48;;;;;;;0.40;0.40;;;0.80;91.40;;;;;;10470899;28;20318;-79
2024/01/14 20:59:51;;;;;;;0.30;0.30;;;0.70;91.40;;;;;;10525831;28;20219;-80
2024/01/14 21:04:56;;;;;;;0.30;0.30;;;0.70;91.50;;;;;;10516940;28;20265;-79
2024/01/14 21:09:59;;;;;;;0.30;0.30;;;0.70;91.40;;;;;;10494228;28;20216;-81
2024/01/14 21:15:03;;;;;;;0.30;0.30;;;0.70;91.40;;;;;;10473755;28;20199;-80
2024/01/14 21:20:06;;;;;;;0.30;0.30;;;0.70;91.20;;;;;;10496966;28;20267;-80
2024/01/14 21:25:10;;;;;;;0.40;0.40;;;0.60;91.10;;;;;;10460377;28;20220;-81
2024/01/14 21:30:14;;;;;;;0.20;0.20;;;0.50;91.20;;;;;;10454226;28;20253;-81
2024/01/14 21:35:16;;;;;;;0.27;0.27;;;0.50;91.20;;;;;;10522027;28;20196;-81
2024/01/14 21:40:21;;;;;;;0.30;0.30;;;0.40;91.20;;;;;;10507614;28;20269;-81
2024/01/14 21:45:23;;;;;;;0.20;0.20;;;0.40;91.20;;;;;;10484209;28;20201;-81
2024/01/14 21:50:26;;;;;;;0.30;0.30;;;0.40;91.50;;;;;;10463031;28;20229;-81
2024/01/14 21:55:43;;;;;;;0.30;0.30;;;0.50;91.10;;;;;;10470199;28;20185;-79
2024/01/14 22:00:45;;;;;;;0.30;0.30;;;0.50;91.00;;;;;;10460006;28;20217;-80
2024/01/14 22:05:48;;;;;;;0.30;0.30;;;0.60;90.70;;;;;;10490672;28;20692;-79
2024/01/14 22:10:51;;;;;;;0.30;0.30;;;0.60;90.60;;;;;;10480544;28;20283;-78
2024/01/14 22:15:54;;;;;;;0.30;0.30;;;0.60;90.30;;;;;;10463309;28;20201;-82
2024/01/14 22:20:56;;;;;;;0.30;0.30;;;0.70;90.30;;;;;;10467852;28;20213;-80
2024/01/14 22:26:01;;;;;;;0.40;0.40;;;0.70;90.20;;;;;;10459725;28;20196;-79
2024/01/14 22:31:05;;;;;;;0.23;0.23;;;0.70;90.40;;;;;;10479876;28;20212;-79
2024/01/14 22:36:10;;;;;;;0.30;0.30;;;0.80;90.10;;;;;;10497615;28;20201;-79
2024/01/14 22:41:14;;;;;;;0.30;0.30;;;0.90;89.80;;;;;;10484678;28;20212;-79
2024/01/14 22:46:20;;;;;;;0.37;0.37;;;1.00;89.60;;;;;;10516846;28;20196;-80
2024/01/14 22:51:23;;;;;;;0.40;0.40;;;1.10;89.90;;;;;;10473572;28;20729;-80
2024/01/14 22:56:27;;;;;;;0.30;0.30;;;1.10;90.10;;;;;;10457908;28;20215;-78
2024/01/14 23:01:30;;;;;;;0.30;0.30;;;1.20;90.10;;;;;;10457532;28;20216;-80
2024/01/14 23:06:33;;;;;;;0.40;0.40;;;1.30;90.20;;;;;;10463991;28;20192;-80
2024/01/14 23:11:36;;;;;;;0.40;0.40;;;1.40;90.10;;;;;;10530152;28;20247;-81
2024/01/14 23:16:39;;;;;;;0.30;0.30;;;1.50;90.10;;;;;;10470021;28;20243;-82
2024/01/14 23:21:42;;;;;;;0.33;0.33;;;1.60;90.00;;;;;;10486068;28;20215;-80
2024/01/14 23:26:46;;;;;;;0.40;0.40;;;1.80;88.60;;;;;;10509900;28;20742;-82
2024/01/14 23:31:48;;;;;;;0.30;0.30;;;1.80;89.50;;;;;;10472682;28;20277;-79
2024/01/14 23:36:51;;;;;;;0.40;0.40;;;1.80;88.90;;;;;;10510897;28;20200;-81
2024/01/14 23:41:55;;;;;;;0.40;0.40;;;1.90;88.80;;;;;;10480844;28;20217;-81
2024/01/14 23:46:57;;;;;;;0.30;0.30;;;1.90;88.10;;;;;;10483826;28;20234;-81
2024/01/14 23:52:00;;;;;;;0.30;0.30;;;1.90;88.00;;;;;;10498557;28;20655;-80
2024/01/14 23:57:05;;;;;;;0.30;0.30;;;1.90;88.10;;;;;;10544407;28;20465;-80
